1971 Tropical Cyclone IDA (1971046S17158)


IBTrACS version v04r00. Visit IBTrACS website for data access.
Please direct all questions to the IBTrACS Q and A forum

Storm track - Intensity - Wind Radii - Intensity Data - Source Data - All data

Summary Information

Storm ID 1971046S17158
Start Feb 15 06Z
Max Intensity 60 kt (Feb 17 12Z), 980 mb (Feb 17 11Z)
End Feb 23 00Z
ATCF IDs ,SH181971
Track status Best track data.

Storm track plot

Map of storm track

Intensity plots

Map of storm track

Radial wind information

No radial wind information for this storm


Position and Intensity Table

BASIN ISO_TIME_________ NATURE LAT LON WMO WIND WMO PRES USA WIND BOM PRES WELLINGTON WIND WELLINGTON PRES DS824 WIND TD9636 WIND NEUMANN WIND NEUMANN PRES
degrees north degrees east kts mb kts mb kts mb kts kts kts mb
SP 1971-02-15 06:00:00 TS -16.90 157.70 15 15
SP 09:00:00 TS -16.61 156.91 15 15
SP 12:00:00 TS -16.40 156.30 15 15
SP 15:00:00 TS -16.32 155.98 15 15
SP 17:00:00 TS -16.36 155.91 15 15 15
SP 18:00:00 TS -16.42 155.91 15 15 15
SP 21:00:00 TS -16.65 155.99 17 17 16
SP 23:00:00 TS -16.85 156.01 1004 19 1004 19 17
SP 1971-02-16 00:00:00 TS -16.97 155.94 20 1003 20 17 20 1004
SP 02:00:00 TS -17.10 156.00 1003 20 1003 20 18 21 1002
SP 03:00:00 TS -17.13 156.04 20 1002 20 19 22 1002
SP 05:00:00 TS -17.11 156.21 20 1001 20 20 24 1001
SP 06:00:00 TS -17.10 156.30 20 1000 20 20 25 1001
SP 08:00:00 TS -17.12 156.46 999 20 999 20 20 26 1000
SP 09:00:00 TS -17.17 156.53 20 999 20 20 27 1000
SP 11:00:00 TS -17.27 156.61 1000 20 1000 20 20 29 1000
SP 12:00:00 TS -17.30 156.63 20 999 20 20 30 1000
SP 14:00:00 TS -17.31 156.59 998 20 998 20 20 31 998
SP 15:00:00 TS -17.30 156.56 20 997 20 20 32 998
SP 17:00:00 TS -17.27 156.54 997 20 997 20 20 34 997
SP 18:00:00 TS -17.24 156.57 20 996 20 22 35 997
SP 20:00:00 TS -17.14 156.73 995 25 995 25 26 38 994
SP 21:00:00 TS -17.11 156.85 27 993 27 28 40 993
SP 23:00:00 TS -17.11 157.14 990 32 990 32 32 43 991
SP 1971-02-17 00:00:00 TS -17.12 157.25 35 989 40 990 35 34 45 990
SP 03:00:00 TS -17.33 157.54 40 986 43 987 40 40 50 987
SP 05:00:00 TS -17.52 157.71 984 43 984 46 985 43 45 53 984
SP 06:00:00 TS -17.60 157.79 45 983 47 985 45 43 55 984
SP 09:00:00 TS -17.84 158.02 40 981 51 982 40 38 57 982
SP 11:00:00 TS -17.97 158.17 980 36 980 53 980 36 35 59 980
SP 12:00:00 TS -18.01 158.25 35 980 55 980 35 33 60 980
SP 15:00:00 TS -18.03 158.49 30 980 55 980 30 29 60 980
SP 17:00:00 TS -18.08 158.69 980 26 980 55 980 26 26 60 980
SP 18:00:00 TS -18.14 158.82 25 980 55 980 25 26 60 980
SP 20:00:00 TS -18.39 159.11 983 25 983 55 980 25 26 58 981
SP 21:00:00 TS -18.56 159.26 25 983 55 980 25 26 57 982
SP 23:00:00 TS -18.92 159.55 985 25 985 55 980 25 26 55 984
SP 1971-02-18 00:00:00 TS -19.09 159.69 25 985 55 980 25 26 55 985
SP 03:00:00 TS -19.55 160.06 25 986 51 982 25 26 52 986
SP 05:00:00 TS -19.83 160.28 25 988 48 984 25 26 50 987
SP 06:00:00 TS -19.96 160.38 25 988 47 985 25 25 50 988
SP 09:00:00 TS -20.32 160.65 25 989 43 987 25 25 47 989
SP 11:00:00 TS -20.53 160.81 25 991 41 989 25 25 45 990
SP 12:00:00 TS -20.63 160.89 40 990 25 991 40 990 25 25 45 991
SP 15:00:00 TS -20.90 161.12 25 991 40 990 25 25 45 991
SP 17:00:00 TS -21.05 161.25 25 991 40 990 25 25 45 991
SP 18:00:00 TS -21.13 161.32 25 991 40 990 25 25 45 991
SP 21:00:00 TS -21.35 161.50 25 991 40 990 25 25 45 991
SP 23:00:00 TS -21.49 161.61 25 992 40 990 25 25 45 991
SP 1971-02-19 00:00:00 TS -21.56 161.66 40 990 25 992 40 990 25 25 45 992
SP 03:00:00 TS -21.76 161.82 25 992 40 990 25 25 45 992
SP 05:00:00 TS -21.89 161.92 25 992 40 990 25 25 45 992
SP 06:00:00 TS -21.96 161.97 25 992 40 990 25 23 45 992
SP 09:00:00 TS -22.14 162.11 20 992 40 990 20 20 42 992
SP 11:00:00 TS -22.25 162.19 16 993 40 990 16 17 40 992
SP 12:00:00 TS -22.30 162.23 40 990 15 993 40 990 15 16 40 993
SP 15:00:00 TS -22.43 162.33 12 993 40 990 12 12 40 993
SP 17:00:00 TS -22.51 162.39 10 994 40 990 10 10 40 993
SP 18:00:00 TS -22.54 162.42 10 994 40 990 10 11 40 994
SP 21:00:00 TS -22.67 162.53 15 994 40 990 15 14 40 994
SP 23:00:00 TS -22.76 162.61 18 995 40 990 18 17 40 994
SP 1971-02-20 00:00:00 TS -22.81 162.65 40 990 20 995 40 990 20 18 40 995
SP 03:00:00 TS -22.96 162.76 22 995 37 991 22 21 40 995
SP 05:00:00 TS -23.08 162.86 24 995 35 992 24 24 40 995
SP 06:00:00 TS -23.14 162.93 25 995 35 993 25 22 40 995
SP 09:00:00 TS -23.38 163.17 20 995 32 995 20 19 37 995
SP 11:00:00 TS -23.57 163.37 16 996 30 996 16 17 35 995
SP 12:00:00 TS -23.68 163.49 30 997 15 995 30 997 15 15 35 996
SP 15:00:00 TS -24.04 163.87 12 995 30 997 12 12 37 995
SP 17:00:00 TS -24.28 164.16 10 995 30 997 10 10 39 995
SP 18:00:00 TS -24.39 164.32 10 995 30 997 10 10 40 995
SP 21:00:00 TS -24.67 164.83 12 995 30 997 12 13 40 995
SP 23:00:00 TS -24.83 165.21 14 995 30 997 14 15 40 995
SP 1971-02-21 00:00:00 TS -24.89 165.43 30 997 15 30 997 15 15 40 995
SP 03:00:00 TS -25.12 166.10 17 30 997 17 18
SP 05:00:00 TS -25.26 166.57 19 30 997 19 20
SP 06:00:00 TS -25.30 166.88 20 30 997 20 20
SP 09:00:00 TS -25.42 167.77 20 30 997 20 20
SP 12:00:00 TS -25.44 168.87 30 997 20 30 997 20 20
SP 15:00:00 NR -25.29 170.40 30 997 20
SP 17:00:00 NR -25.15 171.47 30 997 20
SP 18:00:00 NR -24.92 172.45 30 997
SP 21:00:00 NR -24.91 173.38 30 997
SP 1971-02-22 00:00:00 NR -25.00 174.00 30 997 30 997
SP 03:00:00 NR -25.29 174.19 30 997
SP 06:00:00 NR -25.70 174.07 30 997
SP 09:00:00 NR -26.15 173.77 30 997
SP 12:00:00 NR -26.60 173.40 30 997 30 997
SP 15:00:00 NR -26.99 173.07 30 997
SP 18:00:00 NR -27.32 172.79 30 997
SP 21:00:00 NR -27.62 172.54 30 997
SP 1971-02-23 00:00:00 NR -27.90 172.30 30 997 30 997

Source Information

Agency Information
USA bsh181971.txt
TOKYO
CMA
HKO
NEWDELHI
REUNION
BOM IDCKMSTM0S.csv:Line=6178:IDA
NADI
WELLINGTON TC_BT_1967_2006.csv:Line=171:IDA1971
DS824 s_hem.dat:1153:18P
TD9636 cons_worldwide_trop_cyclone_18710101-19891231-006:Line=8575
TD9635
NEUMANN tracks.sh:Storm=303:IDA:BSH1871:BM398
MLC

All available IBTrACS Data

SEASON BASIN SUBBASIN ISO_TIME_________ NATURE LAT LON WMO WIND WMO PRES WMO AGENCY DIST2LAND LANDFALL IFLAG USA AGENCY USA ATCF_ID USA LAT USA LON USA WIND USA SSHS BOM LAT BOM LON BOM PRES BOM PRES_METHOD WELLINGTON LAT WELLINGTON LON WELLINGTON WIND WELLINGTON PRES DS824 LAT DS824 LON DS824 STAGE DS824 WIND TD9636 LAT TD9636 LON TD9636 STAGE TD9636 WIND NEUMANN LAT NEUMANN LON NEUMANN CLASS NEUMANN WIND NEUMANN PRES STORM SPEED STORM DIR
Year degrees north degrees east kts mb km km degrees north degrees east kts 1 degrees north degrees east mb degrees north degrees east kts mb degrees north degrees east kts degrees north degrees east kts degrees north degrees east kts mb kts degrees
1971 SP EA 1971-02-15 06:00:00 TS -16.90 157.70 765 765 O________O____ jtwc_sh SH181971 -16.90 157.70 15 -1 -16.90 157.70 TC 15 16 291
1971 SP EA 09:00:00 TS -16.61 156.91 823 821 P________P____ SH181971 -16.61 156.91 15 -1 -16.61 156.91 TC 15 14 290
1971 SP EA 12:00:00 TS -16.40 156.30 830 830 O________O____ jtwc_sh SH181971 -16.40 156.30 15 -1 -16.40 156.30 TC 15 9 288
1971 SP EA 15:00:00 TS -16.32 155.98 836 836 P________P____ SH181971 -16.32 155.98 15 -1 -16.32 155.98 TC 15 5 276
1971 SP EA 17:00:00 TS -16.36 155.91 851 851 P________PO___ SH181971 -16.36 155.91 15 -1 -16.36 155.91 TC 15 -16.40 155.90 1 15 2 215
1971 SP EA 18:00:00 TS -16.42 155.91 851 851 O________OP___ jtwc_sh SH181971 -16.40 155.90 15 -1 -16.40 155.90 TC 15 -16.48 155.94 1 15 5 165
1971 SP EA 21:00:00 TS -16.65 155.99 845 836 P________PP___ SH181971 -16.63 155.95 17 -1 -16.63 155.95 TC 17 -16.73 156.07 1 16 5 166
1971 SP EA 23:00:00 TS -16.85 156.01 1004 bom 836 821 P_____O__PP___ SH181971 -16.81 156.05 19 -1 -17.00 155.20 1004 -16.81 156.05 TC 19 -16.88 156.14 1 17 6 186
1971 SP EA 1971-02-16 00:00:00 TS -16.97 155.94 812 804 O_____P__OP_O_ jtwc_sh SH181971 -16.90 156.10 20 -1 -17.19 155.35 1003 -16.90 156.10 TC 20 -16.94 156.18 1 17 -17.00 155.40 TC 20 1004 5 185
1971 SP EA 02:00:00 TS -17.10 156.00 1003 bom 811 811 P_____O__PP_P_ SH181971 -17.03 156.17 20 -1 -17.40 155.70 1003 -17.03 156.17 TC 20 -17.07 156.24 1 18 -16.96 155.79 TC 21 1002 4 150
1971 SP EA 03:00:00 TS -17.13 156.04 811 811 P_____P__PP_P_ SH181971 -17.09 156.21 20 -1 -17.34 155.93 1002 -17.09 156.21 TC 20 -17.12 156.26 1 19 -16.95 155.99 TC 22 1002 4 94
1971 SP EA 05:00:00 TS -17.11 156.21 826 826 P_____P__PO_P_ SH181971 -17.17 156.27 20 -1 -16.99 156.46 1001 -17.17 156.27 TC 20 -17.20 156.30 1 20 -16.96 156.39 TC 24 1001 5 85
1971 SP EA 06:00:00 TS -17.10 156.30 833 833 O_____P__OP_O_ jtwc_sh SH181971 -17.20 156.30 20 -1 -16.82 156.71 1000 -17.20 156.30 TC 20 -17.23 156.31 1 20 -17.00 156.60 TC 25 1001 5 92
1971 SP EA 08:00:00 TS -17.12 156.46 999 bom 848 840 P_____O__PP_P_ SH181971 -17.22 156.34 20 -1 -16.70 157.10 999 -17.22 156.34 TC 20 -17.27 156.32 1 20 -17.13 157.02 TC 26 1000 5 107
1971 SP EA 09:00:00 TS -17.17 156.53 840 839 P_____P__PP_P_ SH181971 -17.21 156.35 20 -1 -16.92 157.23 999 -17.21 156.35 TC 20 -17.28 156.33 1 20 -17.21 157.20 TC 27 1000 4 136
1971 SP EA 11:00:00 TS -17.27 156.61 1000 bom 839 839 P_____O__PP_P_ SH181971 -17.20 156.38 20 -1 -17.40 157.30 1000 -17.20 156.38 TC 20 -17.29 156.34 1 20 -17.35 157.45 TC 29 1000 3 142
1971 SP EA 12:00:00 TS -17.30 156.63 839 839 O_____P__OP_O_ jtwc_sh SH181971 -17.20 156.40 20 -1 -17.50 157.21 999 -17.20 156.40 TC 20 -17.29 156.35 1 20 -17.40 157.50 TC 30 1000 1 215
1971 SP EA 14:00:00 TS -17.31 156.59 998 bom 839 839 P_____O__PP_P_ SH181971 -17.22 156.44 20 -1 -17.50 156.90 998 -17.22 156.44 TC 20 -17.29 156.39 1 20 -17.43 157.29 TC 31 998 1 264
1971 SP EA 15:00:00 TS -17.30 156.56 839 832 P_____P__PP_P_ SH181971 -17.23 156.46 20 -1 -17.48 156.74 997 -17.23 156.46 TC 20 -17.29 156.41 1 20 -17.43 157.11 TC 32 998 1 309
1971 SP EA 17:00:00 TS -17.27 156.54 997 bom 832 832 P_____O__PO_P_ SH181971 -17.27 156.54 20 -1 -17.30 156.50 997 -17.27 156.54 TC 20 -17.30 156.50 1 20 -17.36 156.79 TC 34 997 1 0
1971 SP EA 18:00:00 TS -17.24 156.57 847 843 O_____P__OP_O_ jtwc_sh SH181971 -17.30 156.60 20 -1 -17.10 156.43 996 -17.30 156.60 TC 20 -17.32 156.57 1 22 -17.30 156.70 TC 35 997 4 53
1971 SP EA 20:00:00 TS -17.14 156.73 995 bom 848 838 P_____O__PP_P_ SH181971 -17.36 156.77 25 -1 -16.70 156.50 995 -17.36 156.77 TC 25 -17.36 156.74 1 26 -17.06 156.83 TC 38 994 6 66
1971 SP EA 21:00:00 TS -17.11 156.85 828 810 P_____P__PP_P_ SH181971 -17.40 156.87 27 -1 -16.63 156.69 993 -17.40 156.87 TC 27 -17.38 156.84 1 28 -16.93 156.95 TC 40 993 8 86
1971 SP EA 23:00:00 TS -17.11 157.14 990 bom 810 800 P_____O__PP_P_ SH181971 -17.47 157.09 32 -1 -16.70 157.20 990 -17.47 157.09 TC 32 -17.43 157.05 1 32 -16.73 157.26 TC 43 991 8 91
1971 SP EA 1971-02-17 00:00:00 TS -17.12 157.25 791 761 O_____P_OOP_O_ jtwc_sh SH181971 -17.50 157.20 35 0 -16.78 157.36 989 -16.60 156.90 40 990 -17.50 157.20 TC 35 -17.45 157.16 1 34 -16.70 157.40 TC 45 990 7 120
1971 SP EA 03:00:00 TS -17.33 157.54 761 732 P_____P_PPP_P_ SH181971 -17.55 157.52 40 0 -17.25 157.61 986 -16.98 157.31 43 987 -17.55 157.52 TC 40 -17.54 157.49 1 40 -17.05 157.67 TC 50 987 7 132
1971 SP EA 05:00:00 TS -17.52 157.71 984 bom 732 718 P_____O_PPO_P_ SH181971 -17.58 157.71 43 0 -17.60 157.70 984 -17.22 157.58 46 985 -17.58 157.71 TC 43 -17.60 157.70 2 45 -17.42 157.83 TC 53 984 7 138
1971 SP EA 06:00:00 TS -17.60 157.79 718 689 O_____P_POP_O_ jtwc_sh SH181971 -17.60 157.80 45 0 -17.75 157.77 983 -17.34 157.71 47 985 -17.60 157.80 TC 45 -17.61 157.78 2 43 -17.60 157.90 TC 55 984 7 138
1971 SP EA 09:00:00 TS -17.84 158.02 689 661 P_____P_PPP_P_ SH181971 -17.68 158.01 40 0 -18.16 157.96 981 -17.69 158.11 51 982 -17.68 158.01 TC 40 -17.64 157.98 2 38 -18.04 158.10 TC 57 982 6 136
1971 SP EA 11:00:00 TS -17.97 158.17 980 bom 661 661 P_____O_PPP_P_ SH181971 -17.76 158.13 36 0 -18.30 158.10 980 4 -17.90 158.37 53 980 -17.76 158.13 TC 36 -17.67 158.11 2 35 -18.25 158.23 TC 59 980 5 128
1971 SP EA 12:00:00 TS -18.01 158.25 661 632 O_____P_OOP_O_ jtwc_sh SH181971 -17.80 158.20 35 0 -18.27 158.15 980 -18.00 158.50 55 980 -17.80 158.20 TC 35 -17.70 158.18 2 33 -18.30 158.30 TC 60 980 5 101
1971 SP EA 15:00:00 TS -18.03 158.49 632 608 P_____P_PPP_P_ SH181971 -17.89 158.41 30 -1 -18.05 158.35 980 -18.28 158.88 55 980 -17.89 158.41 TC 30 -17.84 158.41 2 29 -18.13 158.51 TC 60 980 5 99
1971 SP EA 17:00:00 TS -18.08 158.69 980 bom 608 598 P_____O_PPO_P_ SH181971 -18.01 158.59 26 -1 -18.00 158.60 980 -18.45 159.11 55 980 -18.01 158.59 TC 26 -18.00 158.60 1 26 -18.00 158.69 TC 60 980 7 110
1971 SP EA 18:00:00 TS -18.14 158.82 598 556 O_____P_POP_O_ jtwc_sh SH181971 -18.10 158.70 25 -1 -18.05 158.79 980 -18.53 159.23 55 980 -18.10 158.70 TC 25 -18.12 158.72 1 26 -18.00 158.80 TC 60 980 10 129
1971 SP EA 20:00:00 TS -18.39 159.11 983 bom 556 542 P_____O_PPP_P_ SH181971 -18.38 158.97 25 -1 -18.30 159.20 983 -18.69 159.44 55 980 -18.38 158.97 TC 25 -18.42 158.99 1 26 -18.24 159.11 TC 58 981 12 135
1971 SP EA 21:00:00 TS -18.56 159.26 528 496 P_____P_PPP_P_ SH181971 -18.55 159.13 25 -1 -18.50 159.35 983 -18.77 159.54 55 980 -18.55 159.13 TC 25 -18.58 159.14 1 26 -18.42 159.29 TC 57 982 13 142
1971 SP EA 23:00:00 TS -18.92 159.55 985 bom 496 469 P_____O_PPP_P_ SH181971 -18.92 159.45 25 -1 -19.00 159.60 985 -18.92 159.72 55 980 -18.92 159.45 TC 25 -18.94 159.44 1 26 -18.81 159.64 TC 55 984 13 143
1971 SP EA 1971-02-18 00:00:00 TS -19.09 159.69 469 427 O_____P_OOP_O_ jtwc_sh SH181971 -19.10 159.60 25 -1 -19.20 159.73 985 -19.00 159.80 55 980 -19.10 159.60 TC 25 -19.13 159.59 1 26 -19.00 159.80 TC 55 985 12 143
1971 SP MM 03:00:00 TS -19.55 160.06 415 390 P_____P_PPP_P_ SH181971 -19.62 160.03 25 -1 -19.72 160.09 986 -19.26 160.00 51 982 -19.62 160.03 TC 25 -19.67 160.03 1 26 -19.41 160.12 TC 52 986 11 143
1971 SP MM 05:00:00 TS -19.83 160.28 390 378 P_____P_PPO_P_ SH181971 -19.95 160.29 25 -1 -19.99 160.32 988 -19.43 160.11 48 984 -19.95 160.29 TC 25 -20.00 160.30 1 26 -19.67 160.31 TC 50 987 10 144
1971 SP MM 06:00:00 TS -19.96 160.38 377 354 O_____P_POP_O_ jtwc_sh SH181971 -20.10 160.40 25 -1 -20.11 160.43 988 -19.51 160.15 47 985 -20.10 160.40 TC 25 -20.13 160.41 1 25 -19.80 160.40 TC 50 988 9 144
1971 SP MM 09:00:00 TS -20.32 160.65 344 334 P_____P_PPP_P_ SH181971 -20.49 160.67 25 -1 -20.42 160.72 989 -19.76 160.28 43 987 -20.49 160.67 TC 25 -20.48 160.71 1 25 -20.22 160.76 TC 47 989 8 144
1971 SP MM 11:00:00 TS -20.53 160.81 334 324 P_____O_PPP_P_ SH181971 -20.70 160.82 25 -1 -20.60 160.90 991 -19.92 160.36 41 989 -20.70 160.82 TC 25 -20.69 160.88 1 25 -20.48 161.00 TC 45 990 8 144
1971 SP MM 12:00:00 TS -20.63 160.89 40 990 wellington 324 307 O_____P_OOP_O_ jtwc_sh SH181971 -20.80 160.90 25 -1 -20.71 160.99 991 -20.00 160.40 40 990 -20.80 160.90 TC 25 -20.78 160.95 1 25 -20.60 161.10 TC 45 991 7 142
1971 SP MM 15:00:00 TS -20.90 161.12 309 294 P_____P_PPP_P_ SH181971 -21.07 161.17 25 -1 -20.99 161.22 991 -20.21 160.54 40 990 -21.07 161.17 TC 25 -21.04 161.17 1 25 -20.87 161.32 TC 45 991 7 142
1971 SP MM 17:00:00 TS -21.05 161.25 294 294 P_____P_PPO_P_ SH181971 -21.23 161.33 25 -1 -21.16 161.35 991 -20.34 160.64 40 990 -21.23 161.33 TC 25 -21.20 161.30 1 25 -21.02 161.44 TC 45 991 6 141
1971 SP MM 18:00:00 TS -21.13 161.32 294 282 O_____P_POP_O_ jtwc_sh SH181971 -21.30 161.40 25 -1 -21.24 161.42 991 -20.41 160.69 40 990 -21.30 161.40 TC 25 -21.28 161.37 1 25 -21.10 161.50 TC 45 991 6 142
1971 SP MM 21:00:00 TS -21.35 161.50 282 278 P_____P_PPP_P_ SH181971 -21.51 161.57 25 -1 -21.46 161.59 991 -20.60 160.84 40 990 -21.51 161.57 TC 25 -21.51 161.57 1 25 -21.36 161.71 TC 45 991 5 144
1971 SP MM 23:00:00 TS -21.49 161.61 283 273 P_____O_PPP_P_ SH181971 -21.64 161.66 25 -1 -21.60 161.70 992 -20.73 160.94 40 990 -21.64 161.66 TC 25 -21.64 161.70 1 25 -21.52 161.84 TC 45 991 5 145
1971 SP MM 1971-02-19 00:00:00 TS -21.56 161.66 40 990 wellington 279 276 O_____P_OOP_O_ jtwc_sh SH181971 -21.70 161.70 25 -1 -21.68 161.76 992 -20.80 161.00 40 990 -21.70 161.70 TC 25 -21.71 161.75 1 25 -21.60 161.90 TC 45 992 5 144
1971 SP MM 03:00:00 TS -21.76 161.82 283 274 P_____P_PPP_P_ SH181971 -21.91 161.86 25 -1 -21.90 161.93 992 -21.02 161.18 40 990 -21.91 161.86 TC 25 -21.89 161.91 1 25 -21.81 162.06 TC 45 992 5 144
1971 SP MM 05:00:00 TS -21.89 161.92 281 273 P_____P_PPO_P_ SH181971 -22.04 161.96 25 -1 -22.04 162.04 992 -21.17 161.31 40 990 -22.04 161.96 TC 25 -22.00 162.00 1 25 -21.94 162.15 TC 45 992 5 145
1971 SP MM 06:00:00 TS -21.96 161.97 281 278 O_____P_POP_O_ jtwc_sh SH181971 -22.10 162.00 25 -1 -22.11 162.09 992 -21.25 161.38 40 990 -22.10 162.00 TC 25 -22.06 162.04 1 23 -22.00 162.20 TC 45 992 5 145
1971 SP MM 09:00:00 TS -22.14 162.11 278 276 P_____P_PPP_P_ SH181971 -22.26 162.11 20 -1 -22.29 162.22 992 -21.48 161.58 40 990 -22.26 162.11 TC 20 -22.22 162.16 1 20 -22.22 162.36 TC 42 992 4 146
1971 SP MM 11:00:00 TS -22.25 162.19 282 282 P_____O_PPP_P_ SH181971 -22.36 162.17 16 -1 -22.40 162.30 993 -21.63 161.73 40 990 -22.36 162.17 TC 16 -22.32 162.23 1 17 -22.34 162.46 TC 40 992 4 146
1971 SP MM 12:00:00 TS -22.30 162.23 40 990 wellington 282 274 O_____P_OOP_O_ jtwc_sh SH181971 -22.40 162.20 15 -1 -22.44 162.33 993 -21.70 161.80 40 990 -22.40 162.20 TC 15 -22.37 162.26 1 16 -22.40 162.50 TC 40 993 3 144
1971 SP MM 15:00:00 TS -22.43 162.33 281 280 P_____P_PPP_P_ SH181971 -22.50 162.30 12 -1 -22.54 162.40 993 -21.91 161.99 40 990 -22.50 162.30 TC 12 -22.51 162.35 1 12 -22.51 162.56 TC 40 993 3 143
1971 SP MM 17:00:00 TS -22.51 162.39 280 280 P_____P_PPO_P_ SH181971 -22.56 162.37 10 -1 -22.60 162.44 994 -22.04 162.13 40 990 -22.56 162.37 TC 10 -22.60 162.40 1 10 -22.57 162.58 TC 40 993 3 141
1971 SP MM 18:00:00 TS -22.54 162.42 280 280 O_____P_POP_O_ jtwc_sh SH181971 -22.60 162.40 10 -1 -22.63 162.46 994 -22.11 162.20 40 990 -22.60 162.40 TC 10 -22.64 162.42 1 11 -22.60 162.60 TC 40 994 3 143
1971 SP MM 21:00:00 TS -22.67 162.53 286 277 P_____P_PPP_P_ SH181971 -22.74 162.51 15 -1 -22.72 162.54 994 -22.30 162.43 40 990 -22.74 162.51 TC 15 -22.73 162.45 1 14 -22.68 162.69 TC 40 994 3 142
1971 SP MM 23:00:00 TS -22.76 162.61 283 283 P_____O_PPP_P_ SH181971 -22.85 162.57 18 -1 -22.80 162.60 995 -22.43 162.60 40 990 -22.85 162.57 TC 18 -22.80 162.48 1 17 -22.76 162.76 TC 40 994 4 141
1971 SP MM 1971-02-20 00:00:00 TS -22.81 162.65 40 990 wellington 283 273 O_____P_OOP_O_ jtwc_sh SH181971 -22.90 162.60 20 -1 -22.84 162.63 995 -22.50 162.70 40 990 -22.90 162.60 TC 20 -22.83 162.50 1 18 -22.80 162.80 TC 40 995 4 144
1971 SP MM 03:00:00 TS -22.96 162.76 280 280 P_____P_PPP_P_ SH181971 -23.03 162.62 22 -1 -22.98 162.75 995 -22.68 163.01 37 991 -23.03 162.62 TC 22 -22.97 162.60 1 21 -22.98 162.94 TC 40 995 4 143
1971 SP MM 05:00:00 TS -23.08 162.86 280 280 P_____P_PPO_P_ SH181971 -23.13 162.66 24 -1 -23.09 162.85 995 -22.81 163.25 35 992 -23.13 162.66 TC 24 -23.10 162.70 1 24 -23.13 163.04 TC 40 995 5 141
1971 SP MM 06:00:00 TS -23.14 162.93 280 280 O_____P_POP_O_ jtwc_sh SH181971 -23.20 162.70 25 -1 -23.16 162.91 995 -22.87 163.37 35 993 -23.20 162.70 TC 25 -23.19 162.76 1 22 -23.20 163.10 TC 40 995 6 138
1971 SP MM 09:00:00 TS -23.38 163.17 283 283 P_____P_PPP_P_ SH181971 -23.47 162.94 20 -1 -23.40 163.12 995 -23.07 163.77 32 995 -23.47 162.94 TC 20 -23.49 163.01 1 19 -23.37 163.27 TC 37 995 7 136
1971 SP MM 11:00:00 TS -23.57 163.37 290 290 P_____O_PPP_P_ SH181971 -23.69 163.17 16 -1 -23.60 163.30 996 -23.22 164.05 30 996 -23.69 163.17 TC 16 -23.71 163.21 1 17 -23.51 163.41 TC 35 995 8 135
1971 SP MM 12:00:00 TS -23.68 163.49 30 997 wellington 294 294 O_____P_OOP_O_ jtwc_sh SH181971 -23.80 163.30 15 -1 -23.72 163.39 995 -23.30 164.20 30 997 -23.80 163.30 TC 15 -23.83 163.32 1 15 -23.60 163.50 TC 35 996 10 136
1971 SP MM 15:00:00 TS -24.04 163.87 304 304 P_____P_PPP_P_ SH181971 -24.16 163.72 12 -1 -24.14 163.73 995 -23.60 164.58 30 997 -24.16 163.72 TC 12 -24.18 163.71 1 12 -23.98 163.80 TC 37 995 10 135
1971 SP MM 17:00:00 TS -24.28 164.16 313 313 P_____O_PPO_P_ SH181971 -24.39 164.04 10 -1 -24.40 164.00 995 -23.81 164.86 30 997 -24.39 164.04 TC 10 -24.40 164.00 1 10 -24.27 164.06 TC 39 995 11 130
1971 SP MM 18:00:00 TS -24.39 164.32 316 304 O_____P_POP_O_ jtwc_sh SH181971 -24.50 164.20 10 -1 -24.52 164.15 995 -23.92 165.01 30 997 -24.50 164.20 TC 10 -24.50 164.15 1 10 -24.40 164.20 TC 40 995 11 122
1971 SP MM 21:00:00 TS -24.67 164.83 313 303 P_____P_PPP_P_ SH181971 -24.76 164.68 12 -1 -24.82 164.65 995 -24.23 165.54 30 997 -24.76 164.68 TC 12 -24.78 164.63 1 13 -24.73 164.68 TC 40 995 11 118
1971 SP MM 23:00:00 TS -24.83 165.21 304 301 P_____O_PPP_P_ SH181971 -24.92 165.02 14 -1 -25.00 165.00 995 -24.42 165.96 30 997 -24.92 165.02 TC 14 -24.95 164.99 1 15 -24.91 165.02 TC 40 995 12 112
1971 SP MM 1971-02-21 00:00:00 TS -24.89 165.43 30 997 wellington 307 301 O_______OOP_O_ jtwc_sh SH181971 -25.00 165.20 15 -1 -24.50 166.20 30 997 -25.00 165.20 TC 15 -25.03 165.18 1 15 -25.00 165.20 TC 40 995 13 110
1971 SP MM 03:00:00 TS -25.12 166.10 307 306 P_______PPP___ SH181971 -25.26 165.77 17 -1 -24.70 167.06 30 997 -25.26 165.77 TC 17 -25.26 165.78 1 18 TC 13 110
1971 SP MM 05:00:00 TS -25.26 166.57 324 324 P_______PPO___ SH181971 -25.43 166.18 19 -1 -24.80 167.72 30 997 -25.43 166.18 TC 19 -25.40 166.20 1 20 TC 15 104
1971 SP MM 06:00:00 TS -25.30 166.88 324 324 O_______POP___ jtwc_sh SH181971 -25.50 166.40 20 -1 -24.84 168.07 30 997 -25.50 166.40 TC 20 -25.46 166.42 1 20 16 98
1971 SP MM 09:00:00 TS -25.42 167.77 347 347 P_______PPP___ SH181971 -25.67 167.08 20 -1 -24.94 169.13 30 997 -25.67 167.08 TC 20 -25.63 167.10 1 20 18 94
1971 SP MM 12:00:00 TS -25.44 168.87 30 997 wellington 392 392 O_______OOP___ jtwc_sh SH181971 -25.80 167.80 20 -1 -25.00 170.20 30 997 -25.80 167.80 TC 20 -25.78 167.80 1 20 24 87
1971 SP MM 15:00:00 NR -25.29 170.40 481 481 ________P_P___ SH181971 -1 -24.97 171.35 30 997 TC -25.92 168.52 1 20 29 83
1971 SP MM 17:00:00 NR -25.15 171.47 560 563 ________P_O___ SH181971 -1 -24.94 172.09 30 997 TC -26.00 169.00 1 20 38 79
1971 SP MM 18:00:00 NR -24.92 172.45 621 621 ________P_____ -1 -24.92 172.45 30 997 1 26 82
1971 SP MM 21:00:00 NR -24.91 173.38 713 713 ________P_____ -1 -24.91 173.38 30 997 1 14 93
1971 SP MM 1971-02-22 00:00:00 NR -25.00 174.00 30 997 wellington 773 773 ________O_____ -1 -25.00 174.00 30 997 1 8 118
1971 SP MM 03:00:00 NR -25.29 174.19 805 804 ________P_____ -1 -25.29 174.19 30 997 1 7 175
1971 SP MM 06:00:00 NR -25.70 174.07 814 805 ________P_____ -1 -25.70 174.07 30 997 9 204
1971 SP MM 09:00:00 NR -26.15 173.77 815 801 ________P_____ -1 -26.15 173.77 30 997 11 214
1971 SP MM 12:00:00 NR -26.60 173.40 30 997 wellington 806 802 ________O_____ -1 -26.60 173.40 30 997 10 217
1971 SP MM 15:00:00 NR -26.99 173.07 809 801 ________P_____ -1 -26.99 173.07 30 997 9 217
1971 SP MM 18:00:00 NR -27.32 172.79 803 769 ________P_____ -1 -27.32 172.79 30 997 8 217
1971 SP MM 21:00:00 NR -27.62 172.54 769 736 ________P_____ -1 -27.62 172.54 30 997 7 217
1971 SP MM 1971-02-23 00:00:00 NR -27.90 172.30 30 997 wellington 736 ________O_____ -1 -27.90 172.30 30 997 7 217